Laona, Minnesota
Current Conditions -  °F | °C
As of 10:34 PM on Friday 24 Oct 2014 (Local Time) from KRRT Reporting Station
Clear Clear  
Wind Chill: 52°   Ceiling: Unl
Heat Index: 52°   Visibility: 10mi
Dew Point: 37°   Wind: 13mph
Humidity: 58%   Direction: 260°W
Pressure: 29.78"   Gusts: 20mph
Location:  48.6345°N, 95.1786°W
Report Text: KRRT 250334Z AUTO 26011G17KT 10SM CLR 11/03 A2978 RMK AO2
Loading
Personal Weather Stations






























Interactive Weather Map
Tropical Storm Tracking
New forecast layout! Learn more

10-Day Weather Forecast

Advertisements
Track Severe Weather on mobile